Time;durP1;ratioP1;P1;durP2;ratioP2;P2;SDS_P1;SDS_P2;PMS_P1;PMS_P2;Temp;Humidity;BMP_temperature;BMP_pressure;BME280_temperature;BME280_humidity;BME280_pressure;Samples;Min_cycle;Max_cycle;Signal;HPM_P1;HPM_P2
2022/01/29 00:00:30;;;;;;;25.90;7.68;;;7.20;93.60;;;;;;5116844;27;20062;-80
2022/01/29 00:02:55;;;;;;;21.17;8.02;;;7.20;93.60;;;;;;5099819;27;20039;-80
2022/01/29 00:05:21;;;;;;;24.48;9.38;;;7.30;93.70;;;;;;5099783;27;20100;-80
2022/01/29 00:07:47;;;;;;;27.25;7.63;;;7.30;93.80;;;;;;5082811;27;20039;-80
2022/01/29 00:10:14;;;;;;;24.02;7.63;;;7.30;93.70;;;;;;5116861;27;20364;-81
2022/01/29 00:12:41;;;;;;;19.13;7.18;;;7.30;93.60;;;;;;5099407;27;20051;-81
2022/01/29 00:15:07;;;;;;;23.02;7.05;;;7.30;93.90;;;;;;5116859;27;20372;-81
2022/01/29 00:17:33;;;;;;;21.27;6.57;;;7.30;93.60;;;;;;5082685;27;20073;-81
2022/01/29 00:19:58;;;;;;;30.85;8.50;;;7.30;93.70;;;;;;5099503;27;20117;-80
2022/01/29 00:22:24;;;;;;;16.42;8.52;;;7.30;93.70;;;;;;5099669;27;20097;-82
2022/01/29 00:24:50;;;;;;;18.77;6.05;;;7.30;93.80;;;;;;5082562;27;20074;-80
2022/01/29 00:27:18;;;;;;;17.58;7.10;;;7.40;93.60;;;;;;5099288;27;20074;-81
2022/01/29 00:29:44;;;;;;;23.10;6.13;;;7.40;93.50;;;;;;5099645;27;20043;-81
2022/01/29 00:32:12;;;;;;;25.02;8.63;;;7.40;93.60;;;;;;5099539;27;20027;-81
2022/01/29 00:34:39;;;;;;;26.08;7.80;;;7.40;93.60;;;;;;5115384;27;20039;-80
2022/01/29 00:37:05;;;;;;;23.85;7.05;;;7.40;93.90;;;;;;5099049;27;20046;-81
2022/01/29 00:39:30;;;;;;;23.98;8.50;;;7.40;93.90;;;;;;5099093;27;20054;-80
2022/01/29 00:41:56;;;;;;;15.75;6.65;;;7.40;93.80;;;;;;5082167;27;20042;-81
2022/01/29 00:44:24;;;;;;;20.38;6.65;;;7.40;93.70;;;;;;5116070;27;20050;-81
2022/01/29 00:46:50;;;;;;;19.50;7.88;;;7.50;93.70;;;;;;5098813;27;20052;-80
2022/01/29 00:49:16;;;;;;;19.85;7.03;;;7.50;93.70;;;;;;5099103;27;20043;-80
2022/01/29 00:51:42;;;;;;;18.10;8.13;;;7.50;93.60;;;;;;5115734;27;20049;-81
2022/01/29 00:54:08;;;;;;;23.90;6.72;;;7.50;93.80;;;;;;5116059;27;20035;-81
2022/01/29 00:56:33;;;;;;;24.80;8.13;;;7.50;93.60;;;;;;5099020;27;20038;-81
2022/01/29 00:58:59;;;;;;;20.55;7.65;;;7.50;93.80;;;;;;5098941;27;20043;-81
2022/01/29 01:01:25;;;;;;;25.42;8.35;;;7.50;93.70;;;;;;5099047;28;20047;-80
2022/01/29 01:03:51;;;;;;;27.23;8.70;;;7.50;93.60;;;;;;5115722;28;20490;-81
2022/01/29 01:06:17;;;;;;;23.63;8.55;;;7.50;93.60;;;;;;5098604;28;20099;-80
2022/01/29 01:08:43;;;;;;;22.80;7.80;;;7.60;93.60;;;;;;5098889;27;20131;-80
2022/01/29 01:11:08;;;;;;;24.30;8.55;;;7.60;93.70;;;;;;5098811;27;20384;-80
2022/01/29 01:13:35;;;;;;;29.88;9.38;;;7.60;93.50;;;;;;5115370;28;20049;-80
2022/01/29 01:16:04;;;;;;;23.42;8.35;;;7.50;93.70;;;;;;5115527;28;20046;-80
2022/01/29 01:18:30;;;;;;;18.63;7.45;;;7.60;93.70;;;;;;5115569;28;20073;-80
2022/01/29 01:20:56;;;;;;;22.13;7.30;;;7.70;93.60;;;;;;5115804;28;20070;-80
2022/01/29 01:23:22;;;;;;;21.25;8.05;;;7.60;93.60;;;;;;5098549;28;20459;-80
2022/01/29 01:25:48;;;;;;;23.10;8.00;;;7.70;93.60;;;;;;5115510;28;20088;-80
2022/01/29 01:28:14;;;;;;;26.42;9.10;;;7.70;93.50;;;;;;5098305;28;20054;-80
2022/01/29 01:30:40;;;;;;;18.15;8.38;;;7.70;93.70;;;;;;5098543;28;20035;-80
2022/01/29 01:33:06;;;;;;;20.13;7.57;;;7.70;93.70;;;;;;5098478;28;20368;-81
2022/01/29 01:35:41;;;;;;;22.13;8.75;;;7.80;93.70;;;;;;5081584;28;20031;-81
2022/01/29 01:38:14;;;;;;;24.75;8.40;;;7.70;93.60;;;;;;5098567;28;20068;-81
2022/01/29 01:40:43;;;;;;;20.63;8.68;;;7.70;93.90;;;;;;5115421;28;20039;-81
2022/01/29 01:43:09;;;;;;;25.85;10.50;;;7.80;93.80;;;;;;5115264;28;20047;-82
2022/01/29 01:45:34;;;;;;;27.73;10.30;;;7.80;93.90;;;;;;5099641;27;20046;-81
2022/01/29 01:48:04;;;;;;;28.00;9.18;;;7.80;94.10;;;;;;5119203;27;20097;-81
2022/01/29 01:50:31;;;;;;;19.90;10.05;;;7.80;94.00;;;;;;5102387;27;20031;-81
2022/01/29 01:52:58;;;;;;;22.33;11.07;;;7.90;94.10;;;;;;5102379;27;20092;-81
2022/01/29 01:55:24;;;;;;;20.42;10.35;;;7.90;94.20;;;;;;5102248;27;20539;-79
2022/01/29 01:57:50;;;;;;;21.85;9.85;;;7.90;94.10;;;;;;5102110;27;20429;-79
2022/01/29 02:00:16;;;;;;;23.02;9.43;;;7.90;94.40;;;;;;5119067;27;20039;-80
2022/01/29 02:02:42;;;;;;;29.88;11.98;;;8.00;94.30;;;;;;5119069;27;20039;-80
2022/01/29 02:05:08;;;;;;;26.50;12.10;;;8.00;94.40;;;;;;5101946;27;20126;-80
2022/01/29 02:07:35;;;;;;;27.02;11.10;;;8.00;94.40;;;;;;5118833;27;20053;-80
2022/01/29 02:10:01;;;;;;;31.48;11.68;;;8.00;94.50;;;;;;5101837;27;20078;-80
2022/01/29 02:12:30;;;;;;;28.58;10.70;;;8.00;94.40;;;;;;5098164;28;20052;-79
2022/01/29 02:15:01;;;;;;;23.52;10.90;;;8.10;94.50;;;;;;5098958;28;20043;-80
2022/01/29 02:17:27;;;;;;;32.17;12.20;;;8.10;94.50;;;;;;5099081;28;20044;-80
2022/01/29 02:19:53;;;;;;;21.77;10.32;;;8.10;94.40;;;;;;5098200;28;20036;-80
2022/01/29 02:22:18;;;;;;;32.05;10.27;;;8.00;94.50;;;;;;5115212;28;20035;-80
2022/01/29 02:24:44;;;;;;;26.75;12.40;;;8.10;94.30;;;;;;5115233;28;20048;-80
2022/01/29 02:27:09;;;;;;;21.40;10.15;;;8.10;94.20;;;;;;5097981;28;20403;-80
2022/01/29 02:29:35;;;;;;;28.00;11.60;;;8.10;94.20;;;;;;5115072;28;20096;-79
2022/01/29 02:32:01;;;;;;;27.05;12.98;;;8.10;94.20;;;;;;5098091;28;20113;-80
2022/01/29 02:34:30;;;;;;;24.80;12.43;;;8.10;94.10;;;;;;5098062;28;20047;-79
2022/01/29 02:36:56;;;;;;;24.25;11.05;;;8.00;94.20;;;;;;5114882;28;20036;-80
2022/01/29 02:39:22;;;;;;;25.05;11.57;;;8.10;94.40;;;;;;5115197;28;20049;-80
2022/01/29 02:41:48;;;;;;;25.27;10.82;;;8.00;94.40;;;;;;5097899;28;20224;-80
2022/01/29 02:44:21;;;;;;;25.73;11.85;;;8.10;94.30;;;;;;5097793;28;20039;-80
2022/01/29 02:49:14;;;;;;;24.38;10.38;;;8.10;94.10;;;;;;5114713;28;20043;-80
2022/01/29 02:51:48;;;;;;;28.10;11.25;;;8.10;94.10;;;;;;5097672;28;20040;-80
2022/01/29 02:54:15;;;;;;;32.55;11.18;;;8.10;94.20;;;;;;5097661;28;20486;-80
2022/01/29 02:56:40;;;;;;;23.02;10.93;;;8.10;94.20;;;;;;5114053;28;20396;-80
2022/01/29 02:59:06;;;;;;;27.17;11.13;;;8.10;94.30;;;;;;5114383;28;20039;-80
2022/01/29 03:01:32;;;;;;;25.90;10.63;;;8.10;94.20;;;;;;5097773;28;20130;-80
2022/01/29 03:03:58;;;;;;;23.50;11.38;;;8.10;94.20;;;;;;5097585;28;20044;-79
2022/01/29 03:06:23;;;;;;;26.85;11.02;;;8.10;94.20;;;;;;5114317;28;20096;-80
2022/01/29 03:08:49;;;;;;;27.42;12.75;;;8.10;94.20;;;;;;5097454;28;20035;-80
2022/01/29 03:11:19;;;;;;;33.65;12.02;;;8.10;94.30;;;;;;5097582;28;20070;-81
2022/01/29 03:13:46;;;;;;;31.17;12.20;;;8.00;94.30;;;;;;5097208;28;20510;-79
2022/01/29 03:16:11;;;;;;;27.73;13.00;;;8.00;94.50;;;;;;5114497;28;20062;-80
2022/01/29 03:18:37;;;;;;;35.80;14.40;;;8.10;94.50;;;;;;5080659;28;20492;-79
2022/01/29 03:21:03;;;;;;;31.38;13.57;;;8.10;94.40;;;;;;5114103;28;20499;-80
2022/01/29 03:23:29;;;;;;;30.70;13.85;;;8.10;94.50;;;;;;5114417;28;20035;-81
2022/01/29 03:25:54;;;;;;;31.65;13.95;;;8.10;94.50;;;;;;5114014;28;20483;-82
2022/01/29 03:28:20;;;;;;;32.38;13.63;;;8.10;94.50;;;;;;5097024;28;20128;-80
2022/01/29 03:30:46;;;;;;;33.65;13.63;;;8.10;94.50;;;;;;5080410;28;20130;-81
2022/01/29 03:33:11;;;;;;;25.88;13.75;;;8.10;94.50;;;;;;5096953;28;20535;-80
2022/01/29 03:35:37;;;;;;;31.63;13.40;;;8.10;94.50;;;;;;5096841;28;20108;-80
2022/01/29 03:38:04;;;;;;;25.55;13.63;;;8.10;94.60;;;;;;5113735;28;20050;-80
2022/01/29 03:40:34;;;;;;;31.35;13.60;;;8.20;94.60;;;;;;5079911;28;20039;-81
2022/01/29 03:45:25;;;;;;;30.52;13.95;;;8.20;94.50;;;;;;5096745;28;20047;-80
2022/01/29 03:47:51;;;;;;;24.50;12.32;;;8.20;94.50;;;;;;5079685;28;20048;-80
2022/01/29 03:50:17;;;;;;;27.45;12.85;;;8.30;94.70;;;;;;5096587;28;20040;-80
2022/01/29 03:52:42;;;;;;;25.50;12.90;;;8.20;94.60;;;;;;5096621;28;20028;-81
2022/01/29 03:55:08;;;;;;;28.58;13.95;;;8.30;94.60;;;;;;5096780;28;20040;-80
2022/01/29 03:57:34;;;;;;;24.65;11.27;;;8.30;94.60;;;;;;5113335;28;20039;-80
2022/01/29 04:00:01;;;;;;;28.95;14.73;;;8.30;94.70;;;;;;5079506;28;20441;-80
2022/01/29 04:02:27;;;;;;;27.25;12.48;;;8.30;94.60;;;;;;5113613;28;20415;-81
2022/01/29 04:04:52;;;;;;;22.63;10.60;;;8.30;94.60;;;;;;5113262;28;20043;-80
2022/01/29 04:07:18;;;;;;;26.63;12.88;;;8.40;94.40;;;;;;5113113;28;20118;-81
2022/01/29 04:09:48;;;;;;;27.80;13.52;;;8.40;94.30;;;;;;5112064;28;20093;-81
2022/01/29 04:12:14;;;;;;;25.48;14.10;;;8.40;94.50;;;;;;5113192;28;20082;-80
2022/01/29 04:14:41;;;;;;;21.75;11.35;;;8.40;94.40;;;;;;5096244;28;20177;-80
2022/01/29 04:17:07;;;;;;;31.83;15.75;;;8.40;94.50;;;;;;5096011;28;20039;-80
2022/01/29 04:19:34;;;;;;;28.23;12.93;;;8.40;94.30;;;;;;5112969;28;20043;-80
2022/01/29 04:22:01;;;;;;;27.58;13.75;;;8.40;94.40;;;;;;5079424;28;20387;-80
2022/01/29 04:24:26;;;;;;;28.17;12.95;;;8.40;94.60;;;;;;5112935;28;20385;-81
2022/01/29 04:26:52;;;;;;;33.83;14.55;;;8.30;94.60;;;;;;5095860;28;20077;-80
2022/01/29 04:29:18;;;;;;;23.85;13.48;;;8.30;94.40;;;;;;5095989;28;20043;-81
2022/01/29 04:31:58;;;;;;;25.23;12.88;;;8.30;94.60;;;;;;5095977;28;20122;-81
2022/01/29 04:34:25;;;;;;;24.60;12.38;;;8.30;94.70;;;;;;5081189;28;20035;-81
2022/01/29 04:36:51;;;;;;;27.17;14.07;;;8.40;94.70;;;;;;5095669;28;20055;-81
2022/01/29 04:39:16;;;;;;;27.88;13.73;;;8.40;94.70;;;;;;5095656;28;20399;-81
2022/01/29 04:41:42;;;;;;;27.02;13.52;;;8.40;94.40;;;;;;5095734;28;20043;-80
2022/01/29 04:44:08;;;;;;;25.40;11.75;;;8.40;94.50;;;;;;5078761;28;20039;-81
2022/01/29 04:46:33;;;;;;;24.50;14.32;;;8.50;94.50;;;;;;5095727;28;20039;-80
2022/01/29 04:48:59;;;;;;;28.50;13.02;;;8.40;94.60;;;;;;5095512;28;20077;-80
2022/01/29 04:51:25;;;;;;;26.42;13.52;;;8.50;94.50;;;;;;5112683;28;20099;-80
2022/01/29 04:53:51;;;;;;;24.35;14.00;;;8.50;94.30;;;;;;5095784;28;20130;-81
2022/01/29 04:56:17;;;;;;;27.63;14.23;;;8.50;94.50;;;;;;5095318;28;20447;-81
2022/01/29 04:58:43;;;;;;;25.85;13.38;;;8.50;94.40;;;;;;5095335;28;20036;-81
2022/01/29 05:01:09;;;;;;;28.77;14.68;;;8.50;94.40;;;;;;5112226;28;20042;-81
2022/01/29 05:03:34;;;;;;;27.38;12.35;;;8.60;94.20;;;;;;5112217;28;20035;-81
2022/01/29 05:06:00;;;;;;;23.67;14.55;;;8.60;94.20;;;;;;5095148;28;20224;-81
2022/01/29 05:08:26;;;;;;;27.02;14.90;;;8.60;94.10;;;;;;5078354;28;20035;-80
2022/01/29 05:10:54;;;;;;;26.98;14.10;;;8.50;94.10;;;;;;5112549;28;20031;-81
2022/01/29 05:13:24;;;;;;;24.83;13.57;;;8.60;94.20;;;;;;5095252;28;20063;-81
2022/01/29 05:29:14;;;;;;;22.23;12.45;;;8.60;94.20;;;;;;5112257;28;20288;-81
2022/01/29 05:31:39;;;;;;;19.15;11.35;;;8.70;94.00;;;;;;5095310;28;20114;-81
2022/01/29 05:34:05;;;;;;;21.88;13.02;;;8.60;94.20;;;;;;5095050;28;20085;-80
2022/01/29 05:36:32;;;;;;;20.92;10.70;;;8.70;94.10;;;;;;5077998;28;20147;-81
2022/01/29 05:38:58;;;;;;;27.60;14.45;;;8.70;94.00;;;;;;5095037;28;20122;-81
2022/01/29 05:41:24;;;;;;;24.45;12.20;;;8.70;93.90;;;;;;5111854;28;20039;-81
2022/01/29 05:43:49;;;;;;;23.30;11.15;;;8.70;94.10;;;;;;5112181;28;20118;-81
2022/01/29 05:46:16;;;;;;;24.20;11.70;;;8.70;94.10;;;;;;5094681;28;20032;-81
2022/01/29 05:48:43;;;;;;;20.20;12.05;;;8.70;94.00;;;;;;5095044;28;20043;-81
2022/01/29 05:51:08;;;;;;;22.00;12.75;;;8.70;93.90;;;;;;5111828;28;20055;-81
2022/01/29 05:53:35;;;;;;;28.23;14.15;;;8.70;93.80;;;;;;5094915;28;20044;-81
2022/01/29 05:56:01;;;;;;;19.25;11.45;;;8.70;93.70;;;;;;5095145;28;20067;-80
2022/01/29 05:58:26;;;;;;;23.38;12.30;;;8.80;93.50;;;;;;5112000;28;20124;-81
2022/01/29 06:00:52;;;;;;;23.95;12.82;;;8.80;93.60;;;;;;5095093;28;20498;-80
2022/01/29 06:03:18;;;;;;;22.23;11.20;;;8.80;93.50;;;;;;5094894;28;20075;-81
2022/01/29 06:05:44;;;;;;;24.67;12.38;;;8.80;93.50;;;;;;5094777;28;20039;-81
2022/01/29 06:08:10;;;;;;;21.05;10.68;;;8.90;93.50;;;;;;5094647;28;20039;-81
2022/01/29 06:10:35;;;;;;;24.17;12.05;;;8.80;93.50;;;;;;5077852;28;20597;-81
2022/01/29 06:13:14;;;;;;;20.25;11.82;;;8.80;93.50;;;;;;5094339;28;20052;-81
2022/01/29 06:15:44;;;;;;;22.15;10.45;;;8.80;93.50;;;;;;5094645;28;20043;-81
2022/01/29 06:18:15;;;;;;;26.25;13.73;;;8.80;93.50;;;;;;5111541;28;20093;-81
2022/01/29 06:20:42;;;;;;;17.27;9.10;;;8.80;93.60;;;;;;5095556;28;20051;-81
2022/01/29 06:23:10;;;;;;;21.67;11.88;;;8.80;93.80;;;;;;5094538;28;20093;-80
2022/01/29 06:25:36;;;;;;;24.92;9.95;;;8.80;93.50;;;;;;5111522;28;20079;-79
2022/01/29 06:28:02;;;;;;;22.88;11.95;;;8.80;93.60;;;;;;5111411;28;20078;-80
2022/01/29 06:30:27;;;;;;;17.02;10.90;;;8.80;93.60;;;;;;5111745;28;20040;-79
2022/01/29 06:32:53;;;;;;;23.95;9.50;;;8.80;93.80;;;;;;5113101;28;20399;-79
2022/01/29 06:35:19;;;;;;;19.02;10.35;;;8.80;93.60;;;;;;5081197;28;20043;-80
2022/01/29 06:37:44;;;;;;;23.88;12.15;;;8.80;93.60;;;;;;5098200;28;20044;-78
2022/01/29 06:40:11;;;;;;;25.05;10.32;;;8.80;93.80;;;;;;5115021;28;20440;-79
2022/01/29 06:42:37;;;;;;;18.77;10.52;;;8.80;93.70;;;;;;5114966;28;20384;-79
2022/01/29 06:45:04;;;;;;;20.42;11.52;;;8.80;93.60;;;;;;5098144;28;20084;-79
2022/01/29 06:47:30;;;;;;;21.52;10.13;;;8.90;93.50;;;;;;5097757;28;20476;-79
2022/01/29 06:49:56;;;;;;;19.42;9.60;;;8.80;93.60;;;;;;5115043;28;20062;-79
2022/01/29 06:52:22;;;;;;;22.17;10.40;;;8.80;93.60;;;;;;5097874;28;20035;-79
2022/01/29 06:54:48;;;;;;;21.85;10.60;;;8.80;93.70;;;;;;5114771;28;20042;-79
2022/01/29 06:57:14;;;;;;;22.60;11.15;;;8.80;93.70;;;;;;5097647;28;20423;-79
2022/01/29 06:59:39;;;;;;;17.08;10.95;;;8.90;93.60;;;;;;5114931;28;20181;-79
2022/01/29 07:02:05;;;;;;;15.48;9.38;;;8.80;93.40;;;;;;5097598;28;20391;-80
2022/01/29 07:04:31;;;;;;;20.40;9.73;;;8.80;93.50;;;;;;5097804;28;20089;-79
2022/01/29 07:06:56;;;;;;;26.63;12.13;;;8.80;93.60;;;;;;5097568;28;20435;-79
2022/01/29 07:09:22;;;;;;;20.08;10.23;;;8.90;93.50;;;;;;5080584;28;20495;-79
2022/01/29 07:11:54;;;;;;;15.35;9.18;;;8.80;93.60;;;;;;5114288;28;20074;-79
2022/01/29 07:14:20;;;;;;;19.75;10.43;;;8.70;93.80;;;;;;5098475;28;20048;-80
2022/01/29 07:16:46;;;;;;;19.55;10.32;;;8.70;93.60;;;;;;5114132;28;20126;-79
2022/01/29 07:19:11;;;;;;;19.60;9.60;;;8.70;93.70;;;;;;5114562;28;20043;-78
2022/01/29 07:21:38;;;;;;;18.05;9.73;;;8.80;93.50;;;;;;5097427;28;20138;-78
2022/01/29 07:24:05;;;;;;;24.27;9.80;;;8.70;93.70;;;;;;5114282;28;20071;-78
2022/01/29 07:26:30;;;;;;;22.95;9.23;;;8.70;93.70;;;;;;5114253;28;20126;-78
2022/01/29 07:28:56;;;;;;;18.08;9.88;;;8.70;93.70;;;;;;5113983;28;20554;-80
2022/01/29 07:31:22;;;;;;;20.17;10.30;;;8.60;93.80;;;;;;5113961;28;20045;-79
2022/01/29 07:33:48;;;;;;;16.50;9.15;;;8.60;93.80;;;;;;5096620;28;20040;-78
2022/01/29 07:36:14;;;;;;;17.25;8.82;;;8.60;93.80;;;;;;5113813;28;20039;-78
2022/01/29 07:38:40;;;;;;;17.83;8.90;;;8.60;93.90;;;;;;5096901;28;20039;-79
2022/01/29 07:41:05;;;;;;;20.75;8.13;;;8.70;93.80;;;;;;5097050;28;20035;-79
2022/01/29 07:43:31;;;;;;;17.33;9.30;;;8.70;93.90;;;;;;5113476;28;20055;-79
2022/01/29 07:45:57;;;;;;;18.52;10.40;;;8.70;93.60;;;;;;5097111;28;20043;-78
2022/01/29 07:48:24;;;;;;;15.85;9.05;;;8.70;93.90;;;;;;5096515;28;20387;-79
2022/01/29 07:50:50;;;;;;;18.73;9.05;;;8.60;94.00;;;;;;5096645;28;20032;-79
2022/01/29 07:53:15;;;;;;;23.08;10.85;;;8.70;93.90;;;;;;5113582;28;20036;-79
2022/01/29 07:55:41;;;;;;;16.98;9.23;;;8.70;93.70;;;;;;5096594;28;20042;-78
2022/01/29 07:58:07;;;;;;;15.13;7.93;;;8.60;94.00;;;;;;5096748;28;20074;-80
2022/01/29 08:00:33;;;;;;;22.75;8.48;;;8.70;94.10;;;;;;5096580;28;20488;-79
2022/01/29 08:02:59;;;;;;;19.70;8.95;;;8.60;94.10;;;;;;5113283;28;20050;-78
2022/01/29 08:05:26;;;;;;;20.13;8.45;;;8.60;94.20;;;;;;5096366;28;20078;-78
2022/01/29 08:07:51;;;;;;;18.30;8.90;;;8.70;94.10;;;;;;5113158;28;20259;-77
2022/01/29 08:10:17;;;;;;;19.00;9.38;;;8.70;94.10;;;;;;5113229;28;20032;-78
2022/01/29 08:12:43;;;;;;;19.58;8.45;;;8.70;94.10;;;;;;5109610;28;20055;-77
2022/01/29 08:15:09;;;;;;;18.13;8.20;;;8.70;94.10;;;;;;5076185;28;20075;-78
2022/01/29 08:17:35;;;;;;;17.60;7.90;;;8.70;94.00;;;;;;5092909;28;20058;-78
2022/01/29 08:20:01;;;;;;;18.00;7.38;;;8.70;94.00;;;;;;5075858;28;20484;-77
2022/01/29 08:22:27;;;;;;;14.25;7.15;;;8.70;94.20;;;;;;5092653;28;20040;-77
2022/01/29 08:24:53;;;;;;;17.70;7.13;;;8.70;94.10;;;;;;5075672;28;20043;-78
2022/01/29 08:27:19;;;;;;;13.02;6.88;;;8.70;94.00;;;;;;5075515;28;20051;-76
2022/01/29 08:29:45;;;;;;;17.25;6.10;;;8.90;93.80;;;;;;5092523;28;20032;-77
2022/01/29 08:32:11;;;;;;;14.40;6.15;;;8.90;93.80;;;;;;5075851;28;20092;-77
2022/01/29 08:34:39;;;;;;;16.33;7.75;;;8.90;93.80;;;;;;5092381;28;20043;-77
2022/01/29 08:37:05;;;;;;;13.77;6.03;;;9.00;93.60;;;;;;5092590;28;20428;-77
2022/01/29 08:39:32;;;;;;;13.93;6.47;;;9.00;93.70;;;;;;5075832;28;20048;-77
2022/01/29 08:41:58;;;;;;;13.95;5.93;;;9.00;93.60;;;;;;5092278;28;20127;-78
2022/01/29 08:44:25;;;;;;;16.50;5.60;;;9.00;93.70;;;;;;5075586;28;20046;-78
2022/01/29 08:46:51;;;;;;;13.63;6.30;;;9.00;93.60;;;;;;5075264;28;20051;-78
2022/01/29 08:49:17;;;;;;;15.02;6.18;;;9.00;93.60;;;;;;5092138;28;20047;-77
2022/01/29 08:51:42;;;;;;;15.45;5.47;;;9.00;93.40;;;;;;5075262;28;20040;-77
2022/01/29 08:54:08;;;;;;;14.85;5.65;;;9.00;93.50;;;;;;5092144;28;20043;-77
2022/01/29 08:56:34;;;;;;;13.90;5.00;;;9.10;93.40;;;;;;5091408;28;20042;-76
2022/01/29 08:59:00;;;;;;;11.63;5.38;;;9.10;93.40;;;;;;5092061;28;20114;-77
2022/01/29 09:01:25;;;;;;;14.80;5.47;;;9.10;93.50;;;;;;5075070;28;20044;-77
2022/01/29 09:03:51;;;;;;;8.45;5.03;;;9.10;93.20;;;;;;5075097;28;20093;-77
2022/01/29 09:06:17;;;;;;;13.32;5.45;;;9.10;93.40;;;;;;5091829;28;20047;-78
2022/01/29 09:08:46;;;;;;;10.43;4.57;;;9.10;93.30;;;;;;5075210;28;20476;-77
2022/01/29 09:11:14;;;;;;;11.07;4.88;;;9.20;93.20;;;;;;5075054;28;20043;-77
2022/01/29 09:13:40;;;;;;;10.82;4.32;;;9.20;93.10;;;;;;5090264;28;20101;-77
2022/01/29 09:16:06;;;;;;;16.55;7.18;;;9.20;93.00;;;;;;5095191;28;20040;-77
2022/01/29 09:18:31;;;;;;;9.02;4.57;;;9.30;92.90;;;;;;5095520;28;20036;-77
2022/01/29 09:20:57;;;;;;;12.75;4.50;;;9.30;92.80;;;;;;5112444;28;20493;-77
2022/01/29 09:23:23;;;;;;;12.90;4.35;;;9.30;92.90;;;;;;5112070;28;20498;-77
2022/01/29 09:25:49;;;;;;;14.27;4.00;;;9.40;92.80;;;;;;5112077;28;20043;-76
2022/01/29 09:28:15;;;;;;;8.25;4.10;;;9.40;92.90;;;;;;5111912;28;20040;-77
2022/01/29 09:30:41;;;;;;;15.90;5.20;;;9.30;93.10;;;;;;5111955;28;20051;-77
2022/01/29 09:33:07;;;;;;;10.30;4.78;;;9.40;92.80;;;;;;5112323;28;20042;-78
2022/01/29 09:35:33;;;;;;;6.82;3.47;;;9.40;92.90;;;;;;5078148;28;20071;-77
2022/01/29 09:37:58;;;;;;;14.93;3.95;;;9.50;92.80;;;;;;5111986;28;20123;-78
2022/01/29 09:40:24;;;;;;;9.55;3.90;;;9.40;92.80;;;;;;5095344;28;20100;-78
2022/01/29 09:42:51;;;;;;;12.18;3.63;;;9.50;92.60;;;;;;5112159;28;20555;-77
2022/01/29 09:45:21;;;;;;;16.90;4.18;;;9.50;92.40;;;;;;5111861;28;20040;-77
2022/01/29 09:47:48;;;;;;;12.85;3.50;;;9.50;92.50;;;;;;5111753;28;20500;-77
2022/01/29 09:50:17;;;;;;;9.70;2.60;;;9.50;92.40;;;;;;5094996;28;20075;-77
2022/01/29 09:52:44;;;;;;;7.00;2.80;;;9.50;92.70;;;;;;5078247;28;20036;-77
2022/01/29 09:55:10;;;;;;;13.13;3.50;;;9.50;92.40;;;;;;5094887;28;20043;-77
2022/01/29 09:57:36;;;;;;;8.25;2.83;;;9.60;92.40;;;;;;5111610;28;20126;-77
2022/01/29 10:00:06;;;;;;;7.95;2.58;;;9.60;92.30;;;;;;5111938;28;20130;-77
2022/01/29 10:02:31;;;;;;;15.95;3.53;;;9.60;92.20;;;;;;5111762;28;20082;-77
2022/01/29 10:04:58;;;;;;;12.10;4.07;;;9.60;92.20;;;;;;5094866;28;20079;-77
2022/01/29 10:07:26;;;;;;;12.25;2.63;;;9.70;92.00;;;;;;5080345;28;20077;-77
2022/01/29 10:09:52;;;;;;;7.38;2.40;;;9.70;91.90;;;;;;5115572;28;20088;-78
2022/01/29 10:12:30;;;;;;;9.25;2.58;;;9.70;91.90;;;;;;5098353;28;20069;-78
2022/01/29 10:15:00;;;;;;;12.70;3.72;;;9.70;91.70;;;;;;5115598;28;20118;-76
2022/01/29 10:17:42;;;;;;;9.07;2.83;;;9.80;91.60;;;;;;5115406;28;20046;-77
2022/01/29 10:20:12;;;;;;;9.32;3.30;;;9.80;91.40;;;;;;5098428;28;20514;-77
2022/01/29 10:22:38;;;;;;;9.82;3.55;;;9.80;91.50;;;;;;5098390;28;20039;-79
2022/01/29 10:25:12;;;;;;;12.23;3.75;;;9.90;91.50;;;;;;5081870;28;20364;-78
2022/01/29 10:27:39;;;;;;;7.15;2.45;;;10.00;90.90;;;;;;5098306;28;20036;-77
2022/01/29 10:30:08;;;;;;;20.98;4.20;;;10.00;90.90;;;;;;5115430;28;20364;-78
2022/01/29 10:32:35;;;;;;;9.63;2.85;;;10.00;90.70;;;;;;5115173;28;20047;-78
2022/01/29 10:35:02;;;;;;;10.30;2.83;;;10.00;91.00;;;;;;5098398;28;20080;-78
2022/01/29 10:37:29;;;;;;;11.65;2.28;;;10.00;90.60;;;;;;5115026;28;20047;-77
2022/01/29 10:39:56;;;;;;;11.93;3.38;;;10.00;90.50;;;;;;5115299;28;20597;-78
2022/01/29 10:42:36;;;;;;;9.38;2.20;;;10.10;90.20;;;;;;5115018;28;20047;-78
2022/01/29 10:45:07;;;;;;;9.98;3.50;;;10.10;89.90;;;;;;5098200;28;20040;-80
2022/01/29 10:47:55;;;;;;;8.13;2.80;;;10.10;89.90;;;;;;5097839;28;20036;-79
2022/01/29 10:50:21;;;;;;;11.43;2.70;;;10.10;90.00;;;;;;5115147;28;20043;-79
2022/01/29 10:52:48;;;;;;;9.88;2.58;;;10.10;89.90;;;;;;5097744;28;20047;-79
2022/01/29 10:55:14;;;;;;;10.23;2.15;;;10.10;89.60;;;;;;5114779;28;20043;-78
2022/01/29 10:57:42;;;;;;;9.95;2.67;;;10.20;89.20;;;;;;5097572;28;20051;-79
2022/01/29 11:00:26;;;;;;;6.50;2.20;;;10.20;89.20;;;;;;5097692;28;20048;-77
2022/01/29 11:02:54;;;;;;;6.55;3.00;;;10.20;89.10;;;;;;5114921;28;20391;-78
2022/01/29 11:05:27;;;;;;;10.98;2.95;;;10.20;89.00;;;;;;5114521;28;20043;-79
2022/01/29 11:07:55;;;;;;;9.70;3.00;;;10.10;89.10;;;;;;5097377;28;20043;-78
2022/01/29 11:10:21;;;;;;;9.48;2.28;;;10.10;89.10;;;;;;5114483;28;20036;-78
2022/01/29 11:12:49;;;;;;;10.68;2.38;;;10.30;88.30;;;;;;5093803;28;20109;-78
2022/01/29 11:15:17;;;;;;;7.30;2.22;;;10.30;88.20;;;;;;5094006;28;20043;-77
2022/01/29 11:17:44;;;;;;;6.05;2.67;;;10.30;88.50;;;;;;5076661;28;20399;-79
2022/01/29 11:20:11;;;;;;;11.38;2.38;;;10.40;88.30;;;;;;5093819;28;20039;-79
2022/01/29 11:22:43;;;;;;;7.78;2.00;;;10.30;88.20;;;;;;5094144;28;20365;-79
2022/01/29 11:25:32;;;;;;;6.95;1.60;;;10.40;88.00;;;;;;5076919;28;20047;-80
2022/01/29 11:28:22;;;;;;;10.15;2.78;;;10.50;87.90;;;;;;5093667;28;20492;-80
2022/01/29 11:31:11;;;;;;;10.73;2.92;;;10.50;88.10;;;;;;5071949;28;20039;-79
2022/01/29 11:33:58;;;;;;;11.38;3.38;;;10.50;88.00;;;;;;5093736;28;20036;-79
2022/01/29 11:36:49;;;;;;;14.07;3.13;;;10.50;88.10;;;;;;5076591;28;20105;-79
2022/01/29 11:39:36;;;;;;;8.65;2.42;;;10.60;87.70;;;;;;5093615;28;20035;-80
2022/01/29 11:42:29;;;;;;;11.25;3.10;;;10.60;88.00;;;;;;5076843;28;20373;-80
2022/01/29 11:44:54;;;;;;;6.68;2.00;;;10.60;87.60;;;;;;5091520;28;20052;-79
2022/01/29 11:47:24;;;;;;;10.15;2.38;;;10.60;87.50;;;;;;5059725;28;20047;-79
2022/01/29 11:49:51;;;;;;;8.18;2.60;;;10.50;87.40;;;;;;5076398;28;20089;-79
2022/01/29 11:52:24;;;;;;;12.52;2.72;;;10.60;87.30;;;;;;5076636;28;20047;-79
2022/01/29 11:55:04;;;;;;;10.75;2.55;;;10.60;87.40;;;;;;5076359;28;20036;-78
2022/01/29 11:57:29;;;;;;;6.95;1.92;;;10.60;87.40;;;;;;5076321;28;20036;-80
2022/01/29 11:59:55;;;;;;;8.98;2.42;;;10.60;86.90;;;;;;5059650;28;20046;-80
2022/01/29 12:02:21;;;;;;;10.85;2.67;;;10.60;86.90;;;;;;5092928;28;20052;-80
2022/01/29 12:04:55;;;;;;;12.65;2.67;;;10.60;87.00;;;;;;5093028;28;20120;-82
2022/01/29 12:07:35;;;;;;;12.07;3.78;;;10.60;87.20;;;;;;5076026;28;20037;-81
2022/01/29 12:10:10;;;;;;;14.65;2.88;;;10.70;87.00;;;;;;5092868;28;20044;-79
2022/01/29 12:12:44;;;;;;;11.07;3.30;;;10.70;86.80;;;;;;5099175;28;20127;-79
2022/01/29 12:15:10;;;;;;;10.85;2.72;;;10.70;86.90;;;;;;5113985;28;20044;-79
2022/01/29 12:17:48;;;;;;;6.95;2.00;;;10.70;86.80;;;;;;5112900;28;20051;-80
2022/01/29 12:20:17;;;;;;;9.75;2.90;;;10.80;86.80;;;;;;5096588;28;20062;-80
2022/01/29 12:22:44;;;;;;;10.07;2.47;;;10.90;86.60;;;;;;5113300;28;20381;-79
2022/01/29 12:25:16;;;;;;;6.82;1.92;;;11.10;86.30;;;;;;5096056;28;20035;-79
2022/01/29 12:27:47;;;;;;;11.82;2.80;;;11.10;85.70;;;;;;5095856;28;20128;-79
2022/01/29 12:30:22;;;;;;;10.73;2.95;;;11.10;85.70;;;;;;5111864;28;20039;-80
2022/01/29 12:33:12;;;;;;;7.60;2.40;;;11.10;86.20;;;;;;5113047;28;20118;-81
2022/01/29 12:35:39;;;;;;;11.52;2.83;;;11.00;86.10;;;;;;5096140;28;20027;-80
2022/01/29 12:38:10;;;;;;;13.18;2.45;;;11.00;86.40;;;;;;5112573;28;20487;-79
2022/01/29 12:40:40;;;;;;;6.20;2.17;;;10.90;86.50;;;;;;5095812;28;20044;-80
2022/01/29 12:43:31;;;;;;;6.65;2.33;;;10.80;86.40;;;;;;5112689;28;20045;-79
2022/01/29 12:46:14;;;;;;;12.70;2.45;;;10.70;86.80;;;;;;5112844;28;20337;-77
2022/01/29 12:48:42;;;;;;;9.85;2.05;;;10.80;86.80;;;;;;5112498;28;20372;-78
2022/01/29 12:51:10;;;;;;;11.00;3.05;;;10.60;87.10;;;;;;5112640;28;20040;-78
2022/01/29 12:53:37;;;;;;;8.18;3.15;;;10.60;87.00;;;;;;5112589;28;20054;-79
2022/01/29 12:56:09;;;;;;;10.88;1.85;;;10.70;87.00;;;;;;5112312;28;20115;-77
2022/01/29 12:58:39;;;;;;;7.20;2.78;;;10.70;87.00;;;;;;5095507;28;20198;-79
2022/01/29 13:01:07;;;;;;;15.88;2.40;;;10.60;87.10;;;;;;5112430;28;20040;-79
2022/01/29 13:03:34;;;;;;;9.10;2.17;;;10.60;87.20;;;;;;5112673;28;20043;-79